createdAt,value
2023-04-16T00:02:12.768Z,87.89
2023-04-16T00:05:15.168Z,87.88
2023-04-16T00:08:17.296Z,88.19
2023-04-16T00:11:19.302Z,87.70
2023-04-16T00:14:21.332Z,88.14
2023-04-16T00:17:23.567Z,88.49
2023-04-16T00:20:25.674Z,88.19
2023-04-16T00:23:27.817Z,88.36
2023-04-16T00:26:29.860Z,88.42
2023-04-16T00:29:32.437Z,88.34
2023-04-16T00:32:34.532Z,88.40
2023-04-16T00:35:36.775Z,88.53
2023-04-16T00:38:38.810Z,88.21
2023-04-16T00:41:41.162Z,88.00
2023-04-16T00:44:43.256Z,87.41
2023-04-16T00:47:45.785Z,86.66
2023-04-16T00:50:48.389Z,86.78
2023-04-16T00:53:50.948Z,86.50
2023-04-16T00:56:53.097Z,86.39
2023-04-16T00:59:55.851Z,86.93
2023-04-16T01:03:00.040Z,87.10
2023-04-16T01:06:02.563Z,87.32
2023-04-16T01:09:05.418Z,87.35
2023-04-16T01:12:07.579Z,86.37
2023-04-16T01:15:11.327Z,86.53
2023-04-16T01:18:16.728Z,87.63
2023-04-16T01:21:18.824Z,87.73
2023-04-16T01:24:21.036Z,87.44
2023-04-16T01:27:23.107Z,87.74
2023-04-16T01:30:25.464Z,89.33
2023-04-16T01:33:40.352Z,89.18
2023-04-16T01:36:42.746Z,89.58
2023-04-16T01:39:44.834Z,89.83
2023-04-16T01:42:47.014Z,89.47
2023-04-16T01:45:49.217Z,89.55
2023-04-16T01:48:54.856Z,89.14
2023-04-16T01:51:57.306Z,88.92
2023-04-16T01:54:59.532Z,89.72
2023-04-16T01:58:01.708Z,89.98
2023-04-16T02:01:08.254Z,89.90
2023-04-16T02:04:12.076Z,89.70
2023-04-16T02:07:14.755Z,89.71
2023-04-16T02:10:17.260Z,89.09
2023-04-16T02:13:19.964Z,89.07
2023-04-16T02:16:23.463Z,88.96
2023-04-16T02:19:28.470Z,88.76
2023-04-16T02:22:31.099Z,88.38
2023-04-16T02:25:33.217Z,88.93
2023-04-16T02:28:35.871Z,88.60
2023-04-16T02:31:38.558Z,87.81
2023-04-16T02:34:42.789Z,88.07
2023-04-16T02:37:45.523Z,88.62
2023-04-16T02:40:48.009Z,88.85
2023-04-16T02:43:52.052Z,89.13
2023-04-16T02:46:54.396Z,89.73
2023-04-16T02:49:56.805Z,90.08
2023-04-16T02:52:59.445Z,90.00
2023-04-16T02:56:01.733Z,89.87
2023-04-16T02:59:04.182Z,89.31
2023-04-16T03:02:06.507Z,89.40
2023-04-16T03:05:09.177Z,88.90
2023-04-16T03:08:11.941Z,88.44
2023-04-16T03:11:14.274Z,88.25
2023-04-16T03:14:16.399Z,88.27
2023-04-16T03:17:18.918Z,89.01
2023-04-16T03:20:21.219Z,89.59
2023-04-16T03:23:23.419Z,89.97
2023-04-16T03:26:26.336Z,89.79
2023-04-16T03:29:28.748Z,89.40
2023-04-16T03:32:32.018Z,89.50
2023-04-16T03:35:34.487Z,89.84
2023-04-16T03:38:37.949Z,89.59
2023-04-16T03:41:40.121Z,89.09
2023-04-16T03:44:42.268Z,88.35
2023-04-16T03:47:45.261Z,87.58
2023-04-16T03:50:50.812Z,89.22
2023-04-16T03:53:55.358Z,89.90
2023-04-16T03:56:58.363Z,89.14
2023-04-16T04:00:01.055Z,89.27
2023-04-16T04:03:05.718Z,89.38
2023-04-16T04:06:09.594Z,88.94
2023-04-16T04:09:12.266Z,88.58
2023-04-16T04:12:14.473Z,88.55
2023-04-16T04:15:18.896Z,87.62
2023-04-16T04:18:21.114Z,87.51
2023-04-16T04:21:23.217Z,86.39
2023-04-16T04:24:26.334Z,85.79
2023-04-16T04:27:28.507Z,86.29
2023-04-16T04:30:30.753Z,88.03
2023-04-16T04:33:32.934Z,87.65
2023-04-16T04:36:35.040Z,87.47
2023-04-16T04:39:37.403Z,85.87
2023-04-16T04:42:39.558Z,82.47
2023-04-16T04:45:41.928Z,81.08
2023-04-16T04:48:44.338Z,82.67
2023-04-16T04:51:46.521Z,82.46
2023-04-16T04:54:48.604Z,78.81
2023-04-16T04:57:50.734Z,76.97
2023-04-16T05:00:52.885Z,77.16
2023-04-16T05:03:55.145Z,73.38
2023-04-16T05:06:57.248Z,73.47
2023-04-16T05:09:59.325Z,72.79
2023-04-16T05:13:01.795Z,74.47
2023-04-16T05:16:04.007Z,75.79
2023-04-16T05:19:06.090Z,78.41
2023-04-16T05:22:08.156Z,79.18
2023-04-16T05:25:10.424Z,79.44
2023-04-16T05:28:12.463Z,79.78
2023-04-16T05:31:14.659Z,79.10
2023-04-16T05:34:16.775Z,78.65
2023-04-16T05:37:18.833Z,79.76
2023-04-16T05:40:21.006Z,80.38
2023-04-16T05:43:23.117Z,80.75
2023-04-16T05:46:25.253Z,82.81
2023-04-16T05:49:27.443Z,82.27
2023-04-16T05:52:29.489Z,81.87
2023-04-16T05:55:31.846Z,80.62
2023-04-16T05:58:33.909Z,80.19
2023-04-16T06:01:36.102Z,79.79
2023-04-16T06:04:38.202Z,79.70
2023-04-16T06:07:40.288Z,76.41
2023-04-16T06:10:42.355Z,75.81
2023-04-16T06:13:44.477Z,74.57
2023-04-16T06:16:46.937Z,73.14
2023-04-16T06:19:49.090Z,71.85
2023-04-16T06:22:51.165Z,74.04
2023-04-16T06:25:53.272Z,72.85
2023-04-16T06:28:55.609Z,74.68
2023-04-16T06:31:57.666Z,73.02
2023-04-16T06:34:59.798Z,68.98
2023-04-16T06:38:01.961Z,68.69
2023-04-16T06:41:05.348Z,68.13
2023-04-16T06:44:07.398Z,68.45
2023-04-16T06:47:09.596Z,70.00
2023-04-16T06:50:11.759Z,65.70
2023-04-16T06:53:13.884Z,61.81
2023-04-16T06:56:16.078Z,61.15
2023-04-16T06:59:18.277Z,60.46
2023-04-16T07:02:20.551Z,58.16
2023-04-16T07:05:22.676Z,57.58
2023-04-16T07:08:25.003Z,60.83
2023-04-16T07:11:27.463Z,58.48
2023-04-16T07:14:29.734Z,59.03
2023-04-16T07:17:31.793Z,59.20
2023-04-16T07:20:33.914Z,61.12
2023-04-16T07:23:36.022Z,66.46
2023-04-16T07:26:38.136Z,66.29
2023-04-16T07:29:40.975Z,65.02
2023-04-16T07:32:43.154Z,63.63
2023-04-16T07:35:45.468Z,64.35
2023-04-16T07:38:47.522Z,64.08
2023-04-16T07:41:49.619Z,63.72
2023-04-16T07:44:51.790Z,62.04
2023-04-16T07:47:53.890Z,61.45
2023-04-16T07:50:56.403Z,59.83
2023-04-16T07:53:58.482Z,58.23
2023-04-16T07:57:00.729Z,59.47
2023-04-16T08:00:05.074Z,58.35
2023-04-16T08:03:16.298Z,58.14
2023-04-16T08:06:18.516Z,57.67
2023-04-16T08:09:21.781Z,56.57
2023-04-16T08:12:24.117Z,54.95
2023-04-16T08:15:26.653Z,56.46
2023-04-16T08:18:28.756Z,54.62
2023-04-16T08:21:31.674Z,54.72
2023-04-16T08:24:33.725Z,52.86
2023-04-16T08:27:35.811Z,52.21
2023-04-16T08:30:37.881Z,51.88
2023-04-16T08:33:40.484Z,51.22
2023-04-16T08:36:42.608Z,52.93
2023-04-16T08:39:44.676Z,50.46
2023-04-16T08:42:53.677Z,51.13
2023-04-16T08:45:57.017Z,54.50
2023-04-16T08:48:59.299Z,54.72
2023-04-16T08:52:04.420Z,52.92
2023-04-16T08:55:14.586Z,54.14
2023-04-16T08:58:21.447Z,52.59
2023-04-16T09:01:24.821Z,53.35
2023-04-16T09:04:28.555Z,51.99
2023-04-16T09:07:32.086Z,53.93
2023-04-16T09:10:34.783Z,53.17
2023-04-16T09:13:37.501Z,51.86
2023-04-16T09:16:39.870Z,48.70
2023-04-16T09:19:42.099Z,47.82
2023-04-16T09:22:44.215Z,48.07
2023-04-16T09:25:46.500Z,49.47
2023-04-16T09:28:50.870Z,48.86
2023-04-16T09:32:06.167Z,48.00
2023-04-16T09:35:08.618Z,47.15
2023-04-16T09:38:10.696Z,50.20
2023-04-16T09:41:13.635Z,50.87
2023-04-16T09:44:15.843Z,52.77
2023-04-16T09:47:17.984Z,51.74
2023-04-16T09:50:20.241Z,52.18
2023-04-16T09:53:30.160Z,53.34
2023-04-16T09:56:32.287Z,55.56
2023-04-16T09:59:35.841Z,53.61
2023-04-16T10:02:41.725Z,53.20
2023-04-16T10:05:44.604Z,53.44
2023-04-16T10:08:50.557Z,51.35
2023-04-16T10:11:52.770Z,53.38
2023-04-16T10:14:54.844Z,55.46
2023-04-16T10:17:57.188Z,52.62
2023-04-16T10:20:59.989Z,52.67
2023-04-16T10:24:02.932Z,52.16
2023-04-16T10:27:05.094Z,51.70
2023-04-16T10:30:09.509Z,52.20
2023-04-16T10:33:11.846Z,52.04
2023-04-16T10:36:15.366Z,55.46
2023-04-16T10:39:18.647Z,54.05
2023-04-16T10:42:21.821Z,53.09
2023-04-16T10:45:37.691Z,52.91
2023-04-16T10:48:49.897Z,53.53
2023-04-16T10:52:00.074Z,51.59
2023-04-16T10:55:02.179Z,52.72
2023-04-16T10:58:24.183Z,54.48
2023-04-16T11:01:36.241Z,52.75
2023-04-16T11:04:39.809Z,51.11
2023-04-16T11:07:49.309Z,49.61
2023-04-16T11:10:51.800Z,51.97
2023-04-16T11:13:55.620Z,50.61
2023-04-16T11:16:57.717Z,50.46
2023-04-16T11:19:59.817Z,50.08
2023-04-16T11:23:01.963Z,50.63
2023-04-16T11:26:04.103Z,48.82
2023-04-16T11:29:13.401Z,46.76
2023-04-16T11:32:22.752Z,49.30
2023-04-16T11:35:25.061Z,47.59
2023-04-16T11:38:34.394Z,46.93
2023-04-16T11:41:42.427Z,46.49
2023-04-16T11:44:44.513Z,46.54
2023-04-16T11:47:47.433Z,46.15
2023-04-16T11:50:59.099Z,45.03
2023-04-16T11:54:02.105Z,46.36
2023-04-16T11:57:07.204Z,46.19
2023-04-16T12:00:13.864Z,46.89
2023-04-16T12:03:19.042Z,46.84
2023-04-16T12:06:22.726Z,46.19
2023-04-16T12:09:27.343Z,45.45
2023-04-16T12:12:31.630Z,47.54
2023-04-16T12:15:46.284Z,46.28
2023-04-16T12:19:02.128Z,44.33
2023-04-16T12:22:04.152Z,46.48
2023-04-16T12:25:12.024Z,44.99
2023-04-16T12:28:14.354Z,44.37
2023-04-16T12:31:36.654Z,45.73
2023-04-16T12:34:50.104Z,48.65
2023-04-16T12:37:52.305Z,44.38
2023-04-16T12:40:56.995Z,45.50
2023-04-16T12:44:06.761Z,45.68
2023-04-16T12:47:08.882Z,45.98
2023-04-16T12:50:11.170Z,46.44
2023-04-16T12:53:13.291Z,45.94
2023-04-16T12:56:15.696Z,45.92
2023-04-16T12:59:18.086Z,46.16
2023-04-16T13:02:20.270Z,43.80
2023-04-16T13:05:22.465Z,46.06
2023-04-16T13:08:24.565Z,43.86
2023-04-16T13:11:26.955Z,42.58
2023-04-16T13:14:28.995Z,44.76
2023-04-16T13:17:31.276Z,42.93
2023-04-16T13:20:33.378Z,42.62
2023-04-16T13:23:35.601Z,42.45
2023-04-16T13:26:37.731Z,43.57
2023-04-16T13:29:39.788Z,43.30
2023-04-16T13:32:41.912Z,41.18
2023-04-16T13:35:44.102Z,41.70
2023-04-16T13:38:46.158Z,42.13
2023-04-16T13:41:49.124Z,42.31
2023-04-16T13:44:54.181Z,41.02
2023-04-16T13:47:56.440Z,42.29
2023-04-16T13:50:58.590Z,42.63
2023-04-16T13:54:00.674Z,42.18
2023-04-16T13:57:02.864Z,43.53
2023-04-16T14:00:05.334Z,43.80
2023-04-16T14:03:07.792Z,42.40
2023-04-16T14:06:09.948Z,41.96
2023-04-16T14:09:12.108Z,42.26
2023-04-16T14:12:14.271Z,43.63
2023-04-16T14:15:16.541Z,40.82
2023-04-16T14:18:18.635Z,41.65
2023-04-16T14:21:20.968Z,42.44
2023-04-16T14:24:23.071Z,41.37
2023-04-16T14:27:25.217Z,43.43
2023-04-16T14:30:27.320Z,40.32
2023-04-16T14:33:29.445Z,42.07
2023-04-16T14:36:31.629Z,42.33
2023-04-16T14:39:33.834Z,42.22
2023-04-16T14:42:38.854Z,43.68
2023-04-16T14:45:41.229Z,43.82
2023-04-16T14:48:43.750Z,43.19
2023-04-16T14:51:46.604Z,43.49
2023-04-16T14:54:48.722Z,43.83
2023-04-16T14:57:51.332Z,44.88
2023-04-16T15:00:53.592Z,45.91
2023-04-16T15:03:56.618Z,43.62
2023-04-16T15:06:59.477Z,45.92
2023-04-16T15:10:02.022Z,44.31
2023-04-16T15:13:04.250Z,45.54
2023-04-16T15:16:08.643Z,45.93
2023-04-16T15:19:10.942Z,45.05
2023-04-16T15:22:15.284Z,44.66
2023-04-16T15:25:17.409Z,45.01
2023-04-16T15:28:19.915Z,46.47
2023-04-16T15:31:22.397Z,46.77
2023-04-16T15:34:24.949Z,46.95
2023-04-16T15:37:27.382Z,47.79
2023-04-16T15:40:30.405Z,46.42
2023-04-16T15:43:32.567Z,46.99
2023-04-16T15:46:34.798Z,48.49
2023-04-16T15:49:37.495Z,47.16
2023-04-16T15:52:40.654Z,47.13
2023-04-16T15:55:43.045Z,47.08
2023-04-16T15:58:45.193Z,48.48
2023-04-16T16:01:47.687Z,49.00
2023-04-16T16:04:49.882Z,49.65
2023-04-16T16:07:52.179Z,49.03
2023-04-16T16:10:54.843Z,49.78
2023-04-16T16:13:57.322Z,50.87
2023-04-16T16:16:59.857Z,50.97
2023-04-16T16:20:02.094Z,50.12
2023-04-16T16:23:04.666Z,50.88
2023-04-16T16:26:07.336Z,50.69
2023-04-16T16:29:09.839Z,51.70
2023-04-16T16:32:12.434Z,52.37
2023-04-16T16:35:14.842Z,51.46
2023-04-16T16:38:18.052Z,52.71
2023-04-16T16:41:20.751Z,51.79
2023-04-16T16:44:23.225Z,52.35
2023-04-16T16:47:25.747Z,52.58
2023-04-16T16:50:27.985Z,53.60
2023-04-16T16:53:30.171Z,53.13
2023-04-16T16:56:32.545Z,53.77
2023-04-16T16:59:34.997Z,53.62
2023-04-16T17:02:37.817Z,53.78
2023-04-16T17:05:40.825Z,53.73
2023-04-16T17:08:42.985Z,53.23
2023-04-16T17:11:45.100Z,53.57
2023-04-16T17:14:49.747Z,53.75
2023-04-16T17:17:51.935Z,54.81
2023-04-16T17:20:54.249Z,54.90
2023-04-16T17:23:58.379Z,55.48
2023-04-16T17:27:01.708Z,55.05
2023-04-16T17:30:05.615Z,55.55
2023-04-16T17:33:07.791Z,55.50
2023-04-16T17:36:57.671Z,55.39
2023-04-16T17:40:00.244Z,55.45
2023-04-16T17:43:02.734Z,55.13
2023-04-16T17:46:05.098Z,55.46
2023-04-16T17:49:36.782Z,55.18
2023-04-16T17:52:39.526Z,55.88
2023-04-16T17:55:49.864Z,55.89
2023-04-16T17:58:52.363Z,56.17
2023-04-16T18:01:54.912Z,57.05
2023-04-16T18:04:57.306Z,57.44
2023-04-16T18:07:59.739Z,57.86
2023-04-16T18:11:05.699Z,58.32
2023-04-16T18:14:09.928Z,58.48
2023-04-16T18:17:13.389Z,59.86
2023-04-16T18:20:19.364Z,58.48
2023-04-16T18:23:21.593Z,59.85
2023-04-16T18:26:25.295Z,59.67
2023-04-16T18:29:27.519Z,60.11
2023-04-16T18:32:31.250Z,59.83
2023-04-16T18:35:37.261Z,59.35
2023-04-16T18:38:52.952Z,59.39
2023-04-16T18:42:06.747Z,59.89
2023-04-16T18:45:14.054Z,60.07
2023-04-16T18:48:21.277Z,59.54
2023-04-16T18:51:23.462Z,59.52
2023-04-16T18:54:26.239Z,59.60
2023-04-16T18:57:28.385Z,59.49
2023-04-16T19:00:31.052Z,60.16
2023-04-16T19:03:37.782Z,60.29
2023-04-16T19:06:40.443Z,60.53
2023-04-16T19:09:45.313Z,61.87
2023-04-16T19:12:47.395Z,61.20
2023-04-16T19:15:49.605Z,61.52
2023-04-16T19:18:52.259Z,61.05
2023-04-16T19:21:54.523Z,61.65
2023-04-16T19:24:56.709Z,62.58
2023-04-16T19:27:58.805Z,62.22
2023-04-16T19:31:01.064Z,62.57
2023-04-16T19:34:04.098Z,62.34
2023-04-16T19:37:06.271Z,62.38
2023-04-16T19:40:08.709Z,62.39
2023-04-16T19:43:10.904Z,61.72
2023-04-16T19:46:13.243Z,62.29
2023-04-16T19:49:15.445Z,61.75
2023-04-16T19:52:17.872Z,61.37
2023-04-16T19:55:20.014Z,61.29
2023-04-16T19:58:22.086Z,60.47
2023-04-16T20:01:25.093Z,60.93
2023-04-16T20:04:27.436Z,60.67
2023-04-16T20:07:32.902Z,61.66
2023-04-16T20:10:35.213Z,62.61
2023-04-16T20:13:37.925Z,61.54
2023-04-16T20:16:40.966Z,61.72
2023-04-16T20:19:47.496Z,61.11
2023-04-16T20:22:49.893Z,61.79
2023-04-16T20:25:52.374Z,60.65
2023-04-16T20:28:54.598Z,61.09
2023-04-16T20:31:56.714Z,60.48
2023-04-16T20:34:58.822Z,60.01
2023-04-16T20:38:01.133Z,59.74
2023-04-16T20:41:12.590Z,59.87
2023-04-16T20:44:18.236Z,59.37
2023-04-16T20:47:22.084Z,59.31
2023-04-16T20:50:25.398Z,59.92
2023-04-16T20:53:28.049Z,59.78
2023-04-16T20:56:30.130Z,59.31
2023-04-16T20:59:32.183Z,59.59
2023-04-16T21:02:34.491Z,59.56
2023-04-16T21:05:36.952Z,60.23
2023-04-16T21:08:43.546Z,60.31
2023-04-16T21:11:45.906Z,59.98
2023-04-16T21:14:47.952Z,59.96
2023-04-16T21:17:50.126Z,59.92
2023-04-16T21:20:52.292Z,60.67
2023-04-16T21:23:54.457Z,60.15
2023-04-16T21:26:57.515Z,60.08
2023-04-16T21:30:00.420Z,60.16
2023-04-16T21:33:03.374Z,60.03
2023-04-16T21:36:05.700Z,60.58
2023-04-16T21:39:07.920Z,60.46
2023-04-16T21:42:10.135Z,60.65
2023-04-16T21:45:12.637Z,61.16
2023-04-16T21:48:14.723Z,61.11
2023-04-16T21:51:18.213Z,61.47
2023-04-16T21:54:20.687Z,61.01
2023-04-16T21:57:22.736Z,62.03
2023-04-16T22:00:24.882Z,60.07
2023-04-16T22:03:28.190Z,59.73
2023-04-16T22:06:30.512Z,60.82
2023-04-16T22:09:32.574Z,60.01
2023-04-16T22:12:37.918Z,60.35
2023-04-16T22:15:40.703Z,60.66
2023-04-16T22:18:43.010Z,61.64
2023-04-16T22:21:45.423Z,60.47
2023-04-16T22:24:47.521Z,60.11
2023-04-16T22:27:49.606Z,59.54
2023-04-16T22:30:51.724Z,60.09
2023-04-16T22:33:54.019Z,59.24
2023-04-16T22:36:56.351Z,58.87
2023-04-16T22:39:58.457Z,59.32
2023-04-16T22:43:03.265Z,58.86
2023-04-16T22:46:06.576Z,58.70
2023-04-16T22:49:10.479Z,59.00
2023-04-16T22:52:12.720Z,59.27
2023-04-16T22:55:14.853Z,58.78
2023-04-16T22:58:17.127Z,59.28
2023-04-16T23:01:19.334Z,58.79
2023-04-16T23:04:21.531Z,58.43
2023-04-16T23:07:23.616Z,58.23
2023-04-16T23:10:25.661Z,57.95
2023-04-16T23:13:27.788Z,58.90
2023-04-16T23:16:29.879Z,58.02
2023-04-16T23:19:32.360Z,58.78
2023-04-16T23:22:34.539Z,58.17
2023-04-16T23:25:36.774Z,58.20
2023-04-16T23:28:38.878Z,58.65
2023-04-16T23:31:41.190Z,58.75
2023-04-16T23:34:43.352Z,58.76
2023-04-16T23:37:45.559Z,60.25
2023-04-16T23:40:47.592Z,59.89
2023-04-16T23:43:49.613Z,59.45
2023-04-16T23:46:51.754Z,60.33
2023-04-16T23:49:53.856Z,59.51
2023-04-16T23:52:55.959Z,59.60
2023-04-16T23:55:58.086Z,59.64
2023-04-16T23:59:00.225Z,59.45
